sensor_id;sensor_type;location;lat;lon;timestamp;P1;durP1;ratioP1;P2;durP2;ratioP2
23410;SDS011;11878;51.774;7.220;2023-07-31T00:01:28;1.00;;;0.63;;
23410;SDS011;11878;51.774;7.220;2023-07-31T00:04:30;1.73;;;0.70;;
23410;SDS011;11878;51.774;7.220;2023-07-31T00:07:31;1.03;;;0.60;;
23410;SDS011;11878;51.774;7.220;2023-07-31T00:10:33;1.37;;;0.80;;
23410;SDS011;11878;51.774;7.220;2023-07-31T00:13:35;0.90;;;0.60;;
23410;SDS011;11878;51.774;7.220;2023-07-31T00:16:37;1.40;;;0.70;;
23410;SDS011;11878;51.774;7.220;2023-07-31T00:19:39;2.97;;;0.90;;
23410;SDS011;11878;51.774;7.220;2023-07-31T00:22:41;1.10;;;0.57;;
23410;SDS011;11878;51.774;7.220;2023-07-31T00:25:43;6.13;;;0.67;;
23410;SDS011;11878;51.774;7.220;2023-07-31T00:28:44;1.93;;;0.80;;
23410;SDS011;11878;51.774;7.220;2023-07-31T00:31:48;1.30;;;0.77;;
23410;SDS011;11878;51.774;7.220;2023-07-31T00:34:52;3.40;;;0.87;;
23410;SDS011;11878;51.774;7.220;2023-07-31T00:44:49;1.53;;;0.87;;
23410;SDS011;11878;51.774;7.220;2023-07-31T00:47:51;1.47;;;0.50;;
23410;SDS011;11878;51.774;7.220;2023-07-31T00:50:52;1.87;;;0.70;;
23410;SDS011;11878;51.774;7.220;2023-07-31T00:53:55;1.80;;;0.93;;
23410;SDS011;11878;51.774;7.220;2023-07-31T00:56:57;0.77;;;0.50;;
23410;SDS011;11878;51.774;7.220;2023-07-31T00:59:59;5.40;;;0.53;;
23410;SDS011;11878;51.774;7.220;2023-07-31T01:03:01;1.27;;;0.70;;
23410;SDS011;11878;51.774;7.220;2023-07-31T01:13:00;4.40;;;0.93;;
23410;SDS011;11878;51.774;7.220;2023-07-31T01:16:03;4.33;;;1.47;;
23410;SDS011;11878;51.774;7.220;2023-07-31T01:19:05;3.83;;;1.67;;
23410;SDS011;11878;51.774;7.220;2023-07-31T01:31:55;13.77;;;5.00;;
23410;SDS011;11878;51.774;7.220;2023-07-31T01:35:01;10.90;;;4.80;;
23410;SDS011;11878;51.774;7.220;2023-07-31T01:38:03;17.53;;;4.77;;
23410;SDS011;11878;51.774;7.220;2023-07-31T01:41:06;16.87;;;5.50;;
23410;SDS011;11878;51.774;7.220;2023-07-31T01:44:08;14.67;;;4.90;;
23410;SDS011;11878;51.774;7.220;2023-07-31T01:47:10;15.10;;;6.87;;
23410;SDS011;11878;51.774;7.220;2023-07-31T01:50:11;16.67;;;5.53;;
23410;SDS011;11878;51.774;7.220;2023-07-31T01:53:13;15.77;;;5.60;;
23410;SDS011;11878;51.774;7.220;2023-07-31T01:56:15;14.47;;;5.13;;
23410;SDS011;11878;51.774;7.220;2023-07-31T01:59:17;15.00;;;5.87;;
23410;SDS011;11878;51.774;7.220;2023-07-31T02:02:19;16.87;;;5.33;;
23410;SDS011;11878;51.774;7.220;2023-07-31T02:05:21;17.30;;;5.00;;
23410;SDS011;11878;51.774;7.220;2023-07-31T02:08:23;17.80;;;4.80;;
23410;SDS011;11878;51.774;7.220;2023-07-31T02:11:25;14.40;;;5.10;;
23410;SDS011;11878;51.774;7.220;2023-07-31T02:14:27;10.90;;;4.93;;
23410;SDS011;11878;51.774;7.220;2023-07-31T02:17:29;14.97;;;5.00;;
23410;SDS011;11878;51.774;7.220;2023-07-31T02:20:34;11.93;;;4.27;;
23410;SDS011;11878;51.774;7.220;2023-07-31T02:23:36;18.67;;;4.57;;
23410;SDS011;11878;51.774;7.220;2023-07-31T02:26:39;13.30;;;4.60;;
23410;SDS011;11878;51.774;7.220;2023-07-31T02:29:48;13.20;;;4.40;;
23410;SDS011;11878;51.774;7.220;2023-07-31T02:32:51;13.23;;;4.60;;
23410;SDS011;11878;51.774;7.220;2023-07-31T02:35:55;14.67;;;4.07;;
23410;SDS011;11878;51.774;7.220;2023-07-31T02:38:57;12.63;;;4.67;;
23410;SDS011;11878;51.774;7.220;2023-07-31T02:42:00;14.37;;;4.07;;
23410;SDS011;11878;51.774;7.220;2023-07-31T02:45:11;12.57;;;4.23;;
23410;SDS011;11878;51.774;7.220;2023-07-31T02:48:13;12.73;;;3.97;;
23410;SDS011;11878;51.774;7.220;2023-07-31T02:51:25;6.90;;;3.00;;
23410;SDS011;11878;51.774;7.220;2023-07-31T02:54:27;15.03;;;3.73;;
23410;SDS011;11878;51.774;7.220;2023-07-31T02:57:32;16.10;;;3.87;;
23410;SDS011;11878;51.774;7.220;2023-07-31T03:00:41;16.53;;;3.50;;
23410;SDS011;11878;51.774;7.220;2023-07-31T03:03:47;12.63;;;3.87;;
23410;SDS011;11878;51.774;7.220;2023-07-31T03:06:53;7.77;;;3.30;;
23410;SDS011;11878;51.774;7.220;2023-07-31T03:09:55;13.53;;;3.53;;
23410;SDS011;11878;51.774;7.220;2023-07-31T03:12:58;10.77;;;2.93;;
23410;SDS011;11878;51.774;7.220;2023-07-31T03:16:00;14.03;;;4.17;;
23410;SDS011;11878;51.774;7.220;2023-07-31T03:19:02;8.13;;;3.80;;
23410;SDS011;11878;51.774;7.220;2023-07-31T03:22:05;13.57;;;4.07;;
23410;SDS011;11878;51.774;7.220;2023-07-31T03:25:07;12.83;;;3.30;;
23410;SDS011;11878;51.774;7.220;2023-07-31T03:28:23;12.10;;;4.27;;
23410;SDS011;11878;51.774;7.220;2023-07-31T03:31:25;13.43;;;3.43;;
23410;SDS011;11878;51.774;7.220;2023-07-31T03:34:28;8.60;;;3.57;;
23410;SDS011;11878;51.774;7.220;2023-07-31T03:37:30;13.80;;;3.63;;
23410;SDS011;11878;51.774;7.220;2023-07-31T03:40:36;14.33;;;3.83;;
23410;SDS011;11878;51.774;7.220;2023-07-31T03:43:38;14.63;;;4.03;;
23410;SDS011;11878;51.774;7.220;2023-07-31T03:46:40;13.37;;;3.57;;
23410;SDS011;11878;51.774;7.220;2023-07-31T03:49:43;12.73;;;2.97;;
23410;SDS011;11878;51.774;7.220;2023-07-31T03:52:45;15.07;;;3.13;;
23410;SDS011;11878;51.774;7.220;2023-07-31T03:55:47;12.10;;;3.67;;
23410;SDS011;11878;51.774;7.220;2023-07-31T03:58:49;14.83;;;3.87;;
23410;SDS011;11878;51.774;7.220;2023-07-31T04:01:50;13.30;;;3.93;;
23410;SDS011;11878;51.774;7.220;2023-07-31T04:04:53;10.97;;;3.13;;
23410;SDS011;11878;51.774;7.220;2023-07-31T04:07:54;11.60;;;3.70;;
23410;SDS011;11878;51.774;7.220;2023-07-31T04:10:56;10.33;;;3.43;;
23410;SDS011;11878;51.774;7.220;2023-07-31T04:13:58;9.97;;;4.00;;
23410;SDS011;11878;51.774;7.220;2023-07-31T04:17:03;14.10;;;4.23;;
23410;SDS011;11878;51.774;7.220;2023-07-31T04:20:12;12.17;;;3.50;;
23410;SDS011;11878;51.774;7.220;2023-07-31T04:23:14;14.13;;;3.67;;
23410;SDS011;11878;51.774;7.220;2023-07-31T04:26:16;7.70;;;3.40;;
23410;SDS011;11878;51.774;7.220;2023-07-31T04:29:19;17.17;;;3.43;;
23410;SDS011;11878;51.774;7.220;2023-07-31T04:32:21;6.63;;;3.00;;
23410;SDS011;11878;51.774;7.220;2023-07-31T04:35:24;14.00;;;3.77;;
23410;SDS011;11878;51.774;7.220;2023-07-31T04:38:26;17.93;;;4.10;;
23410;SDS011;11878;51.774;7.220;2023-07-31T04:41:45;9.17;;;3.17;;
23410;SDS011;11878;51.774;7.220;2023-07-31T04:45:08;13.13;;;3.37;;
23410;SDS011;11878;51.774;7.220;2023-07-31T04:48:11;11.40;;;3.00;;
23410;SDS011;11878;51.774;7.220;2023-07-31T04:51:16;14.13;;;3.63;;
23410;SDS011;11878;51.774;7.220;2023-07-31T04:54:31;18.57;;;4.23;;
23410;SDS011;11878;51.774;7.220;2023-07-31T04:57:33;16.07;;;3.67;;
23410;SDS011;11878;51.774;7.220;2023-07-31T05:00:35;10.67;;;3.53;;
23410;SDS011;11878;51.774;7.220;2023-07-31T05:03:37;13.00;;;3.03;;
23410;SDS011;11878;51.774;7.220;2023-07-31T05:06:48;12.30;;;3.67;;
23410;SDS011;11878;51.774;7.220;2023-07-31T05:09:56;14.93;;;3.30;;
23410;SDS011;11878;51.774;7.220;2023-07-31T05:13:04;10.00;;;3.33;;
23410;SDS011;11878;51.774;7.220;2023-07-31T05:16:09;12.73;;;3.67;;
23410;SDS011;11878;51.774;7.220;2023-07-31T05:19:11;11.93;;;4.13;;
23410;SDS011;11878;51.774;7.220;2023-07-31T05:22:13;14.23;;;3.57;;
23410;SDS011;11878;51.774;7.220;2023-07-31T05:25:16;14.13;;;4.13;;
23410;SDS011;11878;51.774;7.220;2023-07-31T05:28:20;11.87;;;3.93;;
23410;SDS011;11878;51.774;7.220;2023-07-31T05:31:23;13.80;;;4.13;;
23410;SDS011;11878;51.774;7.220;2023-07-31T05:34:26;11.43;;;4.03;;
23410;SDS011;11878;51.774;7.220;2023-07-31T05:37:28;13.13;;;4.43;;
23410;SDS011;11878;51.774;7.220;2023-07-31T05:40:32;12.77;;;3.43;;
23410;SDS011;11878;51.774;7.220;2023-07-31T05:43:38;11.33;;;3.30;;
23410;SDS011;11878;51.774;7.220;2023-07-31T05:46:50;11.43;;;4.43;;
23410;SDS011;11878;51.774;7.220;2023-07-31T05:49:52;10.97;;;3.37;;
23410;SDS011;11878;51.774;7.220;2023-07-31T05:52:54;16.00;;;3.70;;
23410;SDS011;11878;51.774;7.220;2023-07-31T05:55:56;12.20;;;3.10;;
23410;SDS011;11878;51.774;7.220;2023-07-31T05:59:02;14.40;;;3.50;;
23410;SDS011;11878;51.774;7.220;2023-07-31T06:02:04;9.10;;;3.50;;
23410;SDS011;11878;51.774;7.220;2023-07-31T06:05:07;16.63;;;3.37;;
23410;SDS011;11878;51.774;7.220;2023-07-31T06:08:11;20.63;;;3.90;;
23410;SDS011;11878;51.774;7.220;2023-07-31T06:11:13;8.00;;;3.43;;
23410;SDS011;11878;51.774;7.220;2023-07-31T06:14:17;14.53;;;4.17;;
23410;SDS011;11878;51.774;7.220;2023-07-31T06:17:23;8.03;;;2.63;;
23410;SDS011;11878;51.774;7.220;2023-07-31T06:20:27;9.47;;;3.47;;
23410;SDS011;11878;51.774;7.220;2023-07-31T06:23:29;13.20;;;3.33;;
23410;SDS011;11878;51.774;7.220;2023-07-31T06:26:31;13.90;;;3.90;;
23410;SDS011;11878;51.774;7.220;2023-07-31T06:29:34;11.83;;;3.57;;
23410;SDS011;11878;51.774;7.220;2023-07-31T06:32:36;13.73;;;3.70;;
23410;SDS011;11878;51.774;7.220;2023-07-31T06:35:38;11.77;;;4.17;;
23410;SDS011;11878;51.774;7.220;2023-07-31T06:38:40;13.67;;;3.97;;
23410;SDS011;11878;51.774;7.220;2023-07-31T06:41:42;10.90;;;4.60;;
23410;SDS011;11878;51.774;7.220;2023-07-31T06:44:45;12.47;;;4.17;;
23410;SDS011;11878;51.774;7.220;2023-07-31T06:47:47;12.27;;;4.50;;
23410;SDS011;11878;51.774;7.220;2023-07-31T06:50:49;14.60;;;4.47;;
23410;SDS011;11878;51.774;7.220;2023-07-31T06:53:51;8.93;;;4.63;;
23410;SDS011;11878;51.774;7.220;2023-07-31T06:56:53;14.13;;;4.97;;
23410;SDS011;11878;51.774;7.220;2023-07-31T06:59:55;11.67;;;5.03;;
23410;SDS011;11878;51.774;7.220;2023-07-31T07:02:57;12.37;;;5.03;;
23410;SDS011;11878;51.774;7.220;2023-07-31T07:05:59;8.93;;;4.93;;
23410;SDS011;11878;51.774;7.220;2023-07-31T07:09:01;10.13;;;4.93;;
23410;SDS011;11878;51.774;7.220;2023-07-31T07:12:05;12.20;;;5.67;;
23410;SDS011;11878;51.774;7.220;2023-07-31T07:15:07;8.83;;;5.03;;
23410;SDS011;11878;51.774;7.220;2023-07-31T07:18:10;10.73;;;6.07;;
23410;SDS011;11878;51.774;7.220;2023-07-31T07:21:12;10.10;;;5.30;;
23410;SDS011;11878;51.774;7.220;2023-07-31T07:24:20;10.30;;;5.60;;
23410;SDS011;11878;51.774;7.220;2023-07-31T07:27:22;15.10;;;6.30;;
23410;SDS011;11878;51.774;7.220;2023-07-31T07:30:24;13.20;;;5.57;;
23410;SDS011;11878;51.774;7.220;2023-07-31T07:33:26;10.30;;;5.57;;
23410;SDS011;11878;51.774;7.220;2023-07-31T07:36:29;13.97;;;5.57;;
23410;SDS011;11878;51.774;7.220;2023-07-31T07:39:31;12.10;;;5.77;;
23410;SDS011;11878;51.774;7.220;2023-07-31T07:42:32;12.23;;;5.70;;
23410;SDS011;11878;51.774;7.220;2023-07-31T07:45:34;10.23;;;5.63;;
23410;SDS011;11878;51.774;7.220;2023-07-31T07:48:36;15.77;;;5.83;;
23410;SDS011;11878;51.774;7.220;2023-07-31T07:51:38;10.80;;;5.13;;
23410;SDS011;11878;51.774;7.220;2023-07-31T07:54:41;9.03;;;4.57;;
23410;SDS011;11878;51.774;7.220;2023-07-31T07:57:43;7.33;;;4.53;;
23410;SDS011;11878;51.774;7.220;2023-07-31T08:00:52;12.40;;;4.67;;
23410;SDS011;11878;51.774;7.220;2023-07-31T08:03:55;11.57;;;4.20;;
23410;SDS011;11878;51.774;7.220;2023-07-31T08:07:01;12.33;;;4.93;;
23410;SDS011;11878;51.774;7.220;2023-07-31T08:10:03;8.97;;;5.10;;
23410;SDS011;11878;51.774;7.220;2023-07-31T08:13:06;9.93;;;4.17;;
23410;SDS011;11878;51.774;7.220;2023-07-31T08:16:08;8.00;;;3.40;;
23410;SDS011;11878;51.774;7.220;2023-07-31T08:19:13;7.97;;;4.20;;
23410;SDS011;11878;51.774;7.220;2023-07-31T08:22:18;9.23;;;4.27;;
23410;SDS011;11878;51.774;7.220;2023-07-31T08:25:20;7.93;;;3.83;;
23410;SDS011;11878;51.774;7.220;2023-07-31T08:28:22;7.60;;;4.17;;
23410;SDS011;11878;51.774;7.220;2023-07-31T08:31:24;5.77;;;3.63;;
23410;SDS011;11878;51.774;7.220;2023-07-31T08:34:27;8.10;;;3.13;;
23410;SDS011;11878;51.774;7.220;2023-07-31T08:37:28;8.83;;;3.80;;
23410;SDS011;11878;51.774;7.220;2023-07-31T08:40:33;8.60;;;3.50;;
23410;SDS011;11878;51.774;7.220;2023-07-31T08:43:39;5.47;;;2.67;;
23410;SDS011;11878;51.774;7.220;2023-07-31T08:46:43;4.60;;;2.70;;
23410;SDS011;11878;51.774;7.220;2023-07-31T08:49:46;4.90;;;3.10;;
23410;SDS011;11878;51.774;7.220;2023-07-31T08:52:50;9.20;;;2.63;;
23410;SDS011;11878;51.774;7.220;2023-07-31T08:55:53;5.23;;;2.60;;
23410;SDS011;11878;51.774;7.220;2023-07-31T08:58:56;9.83;;;2.90;;
23410;SDS011;11878;51.774;7.220;2023-07-31T09:02:06;6.03;;;3.20;;
23410;SDS011;11878;51.774;7.220;2023-07-31T09:05:10;6.07;;;3.30;;
23410;SDS011;11878;51.774;7.220;2023-07-31T09:08:17;5.83;;;3.40;;
23410;SDS011;11878;51.774;7.220;2023-07-31T09:11:21;6.00;;;2.73;;
23410;SDS011;11878;51.774;7.220;2023-07-31T09:14:26;6.47;;;3.07;;
23410;SDS011;11878;51.774;7.220;2023-07-31T09:17:31;8.63;;;3.83;;
23410;SDS011;11878;51.774;7.220;2023-07-31T09:20:35;8.50;;;2.90;;
23410;SDS011;11878;51.774;7.220;2023-07-31T09:23:43;5.33;;;2.93;;
23410;SDS011;11878;51.774;7.220;2023-07-31T09:26:49;7.43;;;3.10;;
23410;SDS011;11878;51.774;7.220;2023-07-31T09:29:59;4.03;;;2.80;;
23410;SDS011;11878;51.774;7.220;2023-07-31T09:33:02;5.53;;;2.70;;
23410;SDS011;11878;51.774;7.220;2023-07-31T09:36:09;4.90;;;2.40;;
23410;SDS011;11878;51.774;7.220;2023-07-31T09:39:14;4.73;;;2.50;;
23410;SDS011;11878;51.774;7.220;2023-07-31T09:42:24;3.93;;;2.80;;
23410;SDS011;11878;51.774;7.220;2023-07-31T09:45:27;6.50;;;3.33;;
23410;SDS011;11878;51.774;7.220;2023-07-31T09:48:42;5.17;;;2.47;;
23410;SDS011;11878;51.774;7.220;2023-07-31T09:51:44;5.03;;;2.63;;
23410;SDS011;11878;51.774;7.220;2023-07-31T09:54:49;6.47;;;3.20;;
23410;SDS011;11878;51.774;7.220;2023-07-31T09:57:51;6.30;;;3.60;;
23410;SDS011;11878;51.774;7.220;2023-07-31T10:00:56;6.80;;;3.37;;
23410;SDS011;11878;51.774;7.220;2023-07-31T10:04:00;8.33;;;3.77;;
23410;SDS011;11878;51.774;7.220;2023-07-31T10:07:04;4.10;;;2.83;;
23410;SDS011;11878;51.774;7.220;2023-07-31T10:10:07;5.33;;;3.50;;
23410;SDS011;11878;51.774;7.220;2023-07-31T10:13:12;7.50;;;3.40;;
23410;SDS011;11878;51.774;7.220;2023-07-31T10:16:15;5.77;;;3.30;;
23410;SDS011;11878;51.774;7.220;2023-07-31T10:19:19;8.57;;;3.50;;
23410;SDS011;11878;51.774;7.220;2023-07-31T10:22:22;5.93;;;3.43;;
23410;SDS011;11878;51.774;7.220;2023-07-31T10:25:26;5.57;;;3.67;;
23410;SDS011;11878;51.774;7.220;2023-07-31T10:28:32;6.00;;;3.70;;
23410;SDS011;11878;51.774;7.220;2023-07-31T10:31:37;5.67;;;4.03;;
23410;SDS011;11878;51.774;7.220;2023-07-31T10:34:46;11.67;;;4.60;;
23410;SDS011;11878;51.774;7.220;2023-07-31T10:37:50;7.20;;;4.07;;
23410;SDS011;11878;51.774;7.220;2023-07-31T10:40:53;6.00;;;3.73;;
23410;SDS011;11878;51.774;7.220;2023-07-31T10:44:10;8.90;;;4.00;;
23410;SDS011;11878;51.774;7.220;2023-07-31T10:47:15;7.07;;;4.03;;
23410;SDS011;11878;51.774;7.220;2023-07-31T10:50:23;5.83;;;3.40;;
23410;SDS011;11878;51.774;7.220;2023-07-31T10:53:29;5.87;;;3.70;;
23410;SDS011;11878;51.774;7.220;2023-07-31T10:56:36;4.83;;;3.67;;
23410;SDS011;11878;51.774;7.220;2023-07-31T10:59:40;5.27;;;3.73;;
23410;SDS011;11878;51.774;7.220;2023-07-31T11:02:42;4.27;;;3.70;;
23410;SDS011;11878;51.774;7.220;2023-07-31T11:06:08;6.17;;;4.83;;
23410;SDS011;11878;51.774;7.220;2023-07-31T11:09:11;11.27;;;5.77;;
23410;SDS011;11878;51.774;7.220;2023-07-31T11:12:15;11.80;;;5.60;;
23410;SDS011;11878;51.774;7.220;2023-07-31T11:15:19;9.13;;;6.27;;
23410;SDS011;11878;51.774;7.220;2023-07-31T11:18:21;8.90;;;6.80;;
23410;SDS011;11878;51.774;7.220;2023-07-31T11:21:24;11.40;;;7.20;;
23410;SDS011;11878;51.774;7.220;2023-07-31T11:24:27;15.47;;;7.93;;
23410;SDS011;11878;51.774;7.220;2023-07-31T11:27:29;9.37;;;6.60;;
23410;SDS011;11878;51.774;7.220;2023-07-31T11:30:32;13.27;;;7.33;;
23410;SDS011;11878;51.774;7.220;2023-07-31T11:33:35;13.30;;;8.20;;
23410;SDS011;11878;51.774;7.220;2023-07-31T11:36:37;9.40;;;7.03;;
23410;SDS011;11878;51.774;7.220;2023-07-31T11:39:40;11.27;;;7.00;;
23410;SDS011;11878;51.774;7.220;2023-07-31T11:43:03;10.60;;;6.83;;
23410;SDS011;11878;51.774;7.220;2023-07-31T11:46:06;11.67;;;6.50;;
23410;SDS011;11878;51.774;7.220;2023-07-31T11:49:14;7.30;;;5.10;;
23410;SDS011;11878;51.774;7.220;2023-07-31T11:52:18;6.83;;;4.30;;
23410;SDS011;11878;51.774;7.220;2023-07-31T11:55:24;8.23;;;4.30;;
23410;SDS011;11878;51.774;7.220;2023-07-31T11:58:27;8.90;;;4.57;;
23410;SDS011;11878;51.774;7.220;2023-07-31T12:01:32;7.20;;;4.47;;
23410;SDS011;11878;51.774;7.220;2023-07-31T12:04:35;6.83;;;4.33;;
23410;SDS011;11878;51.774;7.220;2023-07-31T12:07:44;8.77;;;4.63;;
23410;SDS011;11878;51.774;7.220;2023-07-31T12:10:52;6.97;;;4.20;;
23410;SDS011;11878;51.774;7.220;2023-07-31T12:13:56;6.80;;;4.57;;
23410;SDS011;11878;51.774;7.220;2023-07-31T12:16:59;7.37;;;3.90;;
23410;SDS011;11878;51.774;7.220;2023-07-31T12:20:04;8.53;;;4.17;;
23410;SDS011;11878;51.774;7.220;2023-07-31T12:23:06;5.87;;;4.00;;
23410;SDS011;11878;51.774;7.220;2023-07-31T12:26:12;4.90;;;3.60;;
23410;SDS011;11878;51.774;7.220;2023-07-31T12:29:16;8.00;;;3.47;;
23410;SDS011;11878;51.774;7.220;2023-07-31T12:32:23;6.17;;;3.80;;
23410;SDS011;11878;51.774;7.220;2023-07-31T12:35:30;7.07;;;3.87;;
23410;SDS011;11878;51.774;7.220;2023-07-31T12:38:36;6.80;;;3.93;;
23410;SDS011;11878;51.774;7.220;2023-07-31T12:41:38;6.13;;;3.60;;
23410;SDS011;11878;51.774;7.220;2023-07-31T12:44:40;9.73;;;3.67;;
23410;SDS011;11878;51.774;7.220;2023-07-31T12:47:42;5.07;;;4.13;;
23410;SDS011;11878;51.774;7.220;2023-07-31T12:50:44;5.53;;;3.37;;
23410;SDS011;11878;51.774;7.220;2023-07-31T12:53:46;6.57;;;3.80;;
23410;SDS011;11878;51.774;7.220;2023-07-31T12:56:48;5.83;;;3.53;;
23410;SDS011;11878;51.774;7.220;2023-07-31T12:59:51;6.10;;;4.33;;
23410;SDS011;11878;51.774;7.220;2023-07-31T13:02:52;10.63;;;5.03;;
23410;SDS011;11878;51.774;7.220;2023-07-31T13:05:55;6.07;;;4.93;;
23410;SDS011;11878;51.774;7.220;2023-07-31T13:08:56;6.97;;;4.70;;
23410;SDS011;11878;51.774;7.220;2023-07-31T13:11:58;5.67;;;4.50;;
23410;SDS011;11878;51.774;7.220;2023-07-31T13:15:06;4.70;;;3.53;;
23410;SDS011;11878;51.774;7.220;2023-07-31T13:18:09;5.83;;;3.83;;
23410;SDS011;11878;51.774;7.220;2023-07-31T13:21:12;7.53;;;4.10;;
23410;SDS011;11878;51.774;7.220;2023-07-31T13:24:15;7.07;;;3.87;;
23410;SDS011;11878;51.774;7.220;2023-07-31T13:27:20;6.17;;;3.80;;
23410;SDS011;11878;51.774;7.220;2023-07-31T13:30:23;5.80;;;3.57;;
23410;SDS011;11878;51.774;7.220;2023-07-31T13:33:25;5.97;;;4.30;;
23410;SDS011;11878;51.774;7.220;2023-07-31T13:36:41;6.43;;;4.57;;
23410;SDS011;11878;51.774;7.220;2023-07-31T13:39:44;5.93;;;4.03;;
23410;SDS011;11878;51.774;7.220;2023-07-31T13:42:46;4.83;;;3.67;;
23410;SDS011;11878;51.774;7.220;2023-07-31T13:45:49;6.13;;;3.93;;
23410;SDS011;11878;51.774;7.220;2023-07-31T13:48:51;4.77;;;3.00;;
23410;SDS011;11878;51.774;7.220;2023-07-31T13:51:56;5.23;;;3.27;;
23410;SDS011;11878;51.774;7.220;2023-07-31T13:55:00;11.30;;;4.20;;
23410;SDS011;11878;51.774;7.220;2023-07-31T13:58:02;5.17;;;3.97;;
23410;SDS011;11878;51.774;7.220;2023-07-31T14:01:07;7.03;;;3.93;;
23410;SDS011;11878;51.774;7.220;2023-07-31T14:04:09;7.73;;;4.27;;
23410;SDS011;11878;51.774;7.220;2023-07-31T14:07:16;6.80;;;4.47;;
23410;SDS011;11878;51.774;7.220;2023-07-31T14:10:19;5.67;;;3.93;;
23410;SDS011;11878;51.774;7.220;2023-07-31T14:13:21;7.23;;;4.73;;
23410;SDS011;11878;51.774;7.220;2023-07-31T14:16:23;5.40;;;3.77;;
23410;SDS011;11878;51.774;7.220;2023-07-31T14:19:25;6.30;;;3.90;;
23410;SDS011;11878;51.774;7.220;2023-07-31T14:22:31;6.17;;;4.27;;
23410;SDS011;11878;51.774;7.220;2023-07-31T14:25:35;6.27;;;4.20;;
23410;SDS011;11878;51.774;7.220;2023-07-31T14:28:37;6.53;;;3.90;;
23410;SDS011;11878;51.774;7.220;2023-07-31T14:32:06;7.57;;;4.30;;
23410;SDS011;11878;51.774;7.220;2023-07-31T14:35:09;5.90;;;3.60;;
23410;SDS011;11878;51.774;7.220;2023-07-31T14:38:11;7.30;;;4.37;;
23410;SDS011;11878;51.774;7.220;2023-07-31T14:41:16;7.40;;;3.30;;
23410;SDS011;11878;51.774;7.220;2023-07-31T14:44:21;12.90;;;3.80;;
23410;SDS011;11878;51.774;7.220;2023-07-31T14:47:24;8.30;;;3.90;;
23410;SDS011;11878;51.774;7.220;2023-07-31T14:50:29;7.77;;;3.40;;
23410;SDS011;11878;51.774;7.220;2023-07-31T14:53:31;9.33;;;4.17;;
23410;SDS011;11878;51.774;7.220;2023-07-31T14:56:33;9.70;;;4.00;;
23410;SDS011;11878;51.774;7.220;2023-07-31T14:59:38;6.43;;;3.47;;
23410;SDS011;11878;51.774;7.220;2023-07-31T15:02:40;6.60;;;3.80;;
23410;SDS011;11878;51.774;7.220;2023-07-31T15:05:44;8.00;;;4.80;;
23410;SDS011;11878;51.774;7.220;2023-07-31T15:08:49;5.97;;;3.30;;
23410;SDS011;11878;51.774;7.220;2023-07-31T15:11:51;8.93;;;3.70;;
23410;SDS011;11878;51.774;7.220;2023-07-31T15:14:55;5.07;;;3.07;;
23410;SDS011;11878;51.774;7.220;2023-07-31T15:17:57;5.20;;;3.10;;
23410;SDS011;11878;51.774;7.220;2023-07-31T15:21:05;3.93;;;2.37;;
23410;SDS011;11878;51.774;7.220;2023-07-31T15:24:10;6.07;;;2.87;;
23410;SDS011;11878;51.774;7.220;2023-07-31T15:27:18;6.27;;;3.00;;
23410;SDS011;11878;51.774;7.220;2023-07-31T15:30:52;6.83;;;3.00;;
23410;SDS011;11878;51.774;7.220;2023-07-31T15:33:54;7.47;;;3.27;;
23410;SDS011;11878;51.774;7.220;2023-07-31T15:36:59;5.73;;;3.10;;
23410;SDS011;11878;51.774;7.220;2023-07-31T15:40:02;8.03;;;3.77;;
23410;SDS011;11878;51.774;7.220;2023-07-31T15:43:08;10.93;;;3.97;;
23410;SDS011;11878;51.774;7.220;2023-07-31T15:46:11;6.13;;;3.40;;
23410;SDS011;11878;51.774;7.220;2023-07-31T15:49:20;6.80;;;3.90;;
23410;SDS011;11878;51.774;7.220;2023-07-31T15:52:36;9.53;;;3.97;;
23410;SDS011;11878;51.774;7.220;2023-07-31T15:55:44;6.33;;;4.17;;
23410;SDS011;11878;51.774;7.220;2023-07-31T15:58:49;5.33;;;3.70;;
23410;SDS011;11878;51.774;7.220;2023-07-31T16:01:52;8.00;;;4.17;;
23410;SDS011;11878;51.774;7.220;2023-07-31T16:04:55;6.53;;;4.00;;
23410;SDS011;11878;51.774;7.220;2023-07-31T16:07:58;6.83;;;4.17;;
23410;SDS011;11878;51.774;7.220;2023-07-31T16:11:13;9.53;;;4.40;;
23410;SDS011;11878;51.774;7.220;2023-07-31T16:14:45;8.20;;;4.67;;
23410;SDS011;11878;51.774;7.220;2023-07-31T16:17:55;8.73;;;5.00;;
23410;SDS011;11878;51.774;7.220;2023-07-31T16:21:01;7.40;;;4.53;;
23410;SDS011;11878;51.774;7.220;2023-07-31T16:24:16;10.77;;;4.83;;
23410;SDS011;11878;51.774;7.220;2023-07-31T16:27:23;8.80;;;4.70;;
23410;SDS011;11878;51.774;7.220;2023-07-31T16:30:40;9.17;;;4.20;;
23410;SDS011;11878;51.774;7.220;2023-07-31T16:33:48;14.47;;;4.67;;
23410;SDS011;11878;51.774;7.220;2023-07-31T16:36:52;9.37;;;4.43;;
23410;SDS011;11878;51.774;7.220;2023-07-31T16:40:03;9.23;;;4.33;;
23410;SDS011;11878;51.774;7.220;2023-07-31T16:43:12;20.57;;;4.57;;
23410;SDS011;11878;51.774;7.220;2023-07-31T16:46:20;9.97;;;3.53;;
23410;SDS011;11878;51.774;7.220;2023-07-31T16:49:36;7.20;;;3.60;;
23410;SDS011;11878;51.774;7.220;2023-07-31T16:52:49;10.50;;;4.37;;
23410;SDS011;11878;51.774;7.220;2023-07-31T16:56:17;6.63;;;3.53;;
23410;SDS011;11878;51.774;7.220;2023-07-31T16:59:37;5.70;;;3.20;;
23410;SDS011;11878;51.774;7.220;2023-07-31T17:02:48;7.30;;;3.63;;
23410;SDS011;11878;51.774;7.220;2023-07-31T17:05:53;7.93;;;4.10;;
23410;SDS011;11878;51.774;7.220;2023-07-31T17:09:15;9.97;;;3.93;;
23410;SDS011;11878;51.774;7.220;2023-07-31T17:12:32;7.33;;;3.30;;
23410;SDS011;11878;51.774;7.220;2023-07-31T17:15:46;9.07;;;3.93;;
23410;SDS011;11878;51.774;7.220;2023-07-31T17:18:59;10.47;;;3.60;;
23410;SDS011;11878;51.774;7.220;2023-07-31T17:22:29;7.37;;;3.50;;
23410;SDS011;11878;51.774;7.220;2023-07-31T17:25:49;12.90;;;3.83;;
23410;SDS011;11878;51.774;7.220;2023-07-31T17:29:33;8.07;;;3.30;;
23410;SDS011;11878;51.774;7.220;2023-07-31T17:32:44;9.43;;;4.00;;
23410;SDS011;11878;51.774;7.220;2023-07-31T17:35:53;6.37;;;3.43;;
23410;SDS011;11878;51.774;7.220;2023-07-31T17:39:46;7.87;;;2.80;;
23410;SDS011;11878;51.774;7.220;2023-07-31T17:43:31;6.93;;;3.30;;
23410;SDS011;11878;51.774;7.220;2023-07-31T17:50:22;6.33;;;2.93;;
23410;SDS011;11878;51.774;7.220;2023-07-31T17:53:54;8.60;;;3.47;;
23410;SDS011;11878;51.774;7.220;2023-07-31T17:57:09;5.37;;;3.10;;
23410;SDS011;11878;51.774;7.220;2023-07-31T18:00:25;4.13;;;2.43;;
23410;SDS011;11878;51.774;7.220;2023-07-31T18:03:34;6.23;;;2.80;;
23410;SDS011;11878;51.774;7.220;2023-07-31T18:10:26;5.83;;;2.63;;
23410;SDS011;11878;51.774;7.220;2023-07-31T18:13:41;6.97;;;2.13;;
23410;SDS011;11878;51.774;7.220;2023-07-31T18:21:01;6.50;;;2.47;;
23410;SDS011;11878;51.774;7.220;2023-07-31T18:24:49;6.27;;;2.43;;
23410;SDS011;11878;51.774;7.220;2023-07-31T18:28:17;4.73;;;2.60;;
23410;SDS011;11878;51.774;7.220;2023-07-31T18:35:11;6.43;;;2.63;;
23410;SDS011;11878;51.774;7.220;2023-07-31T18:38:52;4.93;;;2.33;;
23410;SDS011;11878;51.774;7.220;2023-07-31T18:42:32;4.57;;;2.43;;
23410;SDS011;11878;51.774;7.220;2023-07-31T18:45:42;6.27;;;2.30;;
23410;SDS011;11878;51.774;7.220;2023-07-31T18:49:18;3.90;;;1.80;;
23410;SDS011;11878;51.774;7.220;2023-07-31T18:52:34;3.27;;;1.57;;
23410;SDS011;11878;51.774;7.220;2023-07-31T18:56:06;3.70;;;1.47;;
23410;SDS011;11878;51.774;7.220;2023-07-31T18:59:38;4.50;;;2.03;;
23410;SDS011;11878;51.774;7.220;2023-07-31T19:02:43;6.67;;;2.10;;
23410;SDS011;11878;51.774;7.220;2023-07-31T19:06:15;3.50;;;1.90;;
23410;SDS011;11878;51.774;7.220;2023-07-31T19:09:42;3.27;;;1.83;;
23410;SDS011;11878;51.774;7.220;2023-07-31T19:16:52;3.40;;;1.93;;
23410;SDS011;11878;51.774;7.220;2023-07-31T19:20:04;4.20;;;2.43;;